sensor_id;sensor_type;location;lat;lon;timestamp;pressure;altitude;pressure_sealevel;temperature;humidity
70833;BME280;58452;59.418;17.962;2023-03-19T00:01:40;101115.84;;;4.15;89.13
70833;BME280;58452;59.418;17.962;2023-03-19T00:04:05;101117.31;;;4.19;88.53
70833;BME280;58452;59.418;17.962;2023-03-19T00:06:31;101118.78;;;4.23;88.89
70833;BME280;58452;59.418;17.962;2023-03-19T00:08:57;101113.47;;;4.26;88.72
70833;BME280;58452;59.418;17.962;2023-03-19T00:11:22;101115.06;;;4.29;88.46
70833;BME280;58452;59.418;17.962;2023-03-19T00:13:47;101127.72;;;4.30;88.66
70833;BME280;58452;59.418;17.962;2023-03-19T00:16:13;101128.34;;;4.20;87.64
70833;BME280;58452;59.418;17.962;2023-03-19T00:18:38;101125.09;;;4.18;87.48
70833;BME280;58452;59.418;17.962;2023-03-19T00:21:04;101125.53;;;3.96;88.71
70833;BME280;58452;59.418;17.962;2023-03-19T00:23:30;101128.00;;;4.12;87.87
70833;BME280;58452;59.418;17.962;2023-03-19T00:25:55;101126.63;;;4.06;88.40
70833;BME280;58452;59.418;17.962;2023-03-19T00:28:20;101129.44;;;4.02;88.17
70833;BME280;58452;59.418;17.962;2023-03-19T00:30:46;101126.63;;;3.92;89.33
70833;BME280;58452;59.418;17.962;2023-03-19T00:33:11;101129.06;;;4.08;88.95
70833;BME280;58452;59.418;17.962;2023-03-19T00:35:38;101135.31;;;4.18;88.36
70833;BME280;58452;59.418;17.962;2023-03-19T00:38:04;101133.19;;;4.24;88.00
70833;BME280;58452;59.418;17.962;2023-03-19T00:40:30;101126.56;;;4.22;88.18
70833;BME280;58452;59.418;17.962;2023-03-19T00:42:56;101133.91;;;4.26;87.65
70833;BME280;58452;59.418;17.962;2023-03-19T00:45:21;101134.09;;;4.23;88.36
70833;BME280;58452;59.418;17.962;2023-03-19T00:47:47;101135.63;;;3.98;88.15
70833;BME280;58452;59.418;17.962;2023-03-19T00:50:12;101134.47;;;4.03;88.28
70833;BME280;58452;59.418;17.962;2023-03-19T00:52:38;101138.56;;;3.91;88.92
70833;BME280;58452;59.418;17.962;2023-03-19T00:55:03;101139.97;;;3.67;90.44
70833;BME280;58452;59.418;17.962;2023-03-19T00:57:29;101145.03;;;3.53;91.78
70833;BME280;58452;59.418;17.962;2023-03-19T00:59:54;101149.19;;;3.40;92.84
70833;BME280;58452;59.418;17.962;2023-03-19T01:02:20;101148.38;;;3.39;93.18
70833;BME280;58452;59.418;17.962;2023-03-19T01:04:48;101151.16;;;3.35;93.53
70833;BME280;58452;59.418;17.962;2023-03-19T01:07:14;101145.19;;;3.20;94.50
70833;BME280;58452;59.418;17.962;2023-03-19T01:09:40;101141.19;;;3.46;94.71
70833;BME280;58452;59.418;17.962;2023-03-19T01:12:06;101146.00;;;3.66;94.68
70833;BME280;58452;59.418;17.962;2023-03-19T01:14:32;101148.19;;;3.72;93.84
70833;BME280;58452;59.418;17.962;2023-03-19T01:16:58;101148.56;;;3.80;93.21
70833;BME280;58452;59.418;17.962;2023-03-19T01:19:24;101146.47;;;3.87;92.60
70833;BME280;58452;59.418;17.962;2023-03-19T01:21:49;101152.81;;;3.96;92.36
70833;BME280;58452;59.418;17.962;2023-03-19T01:24:15;101157.81;;;3.97;91.83
70833;BME280;58452;59.418;17.962;2023-03-19T01:26:42;101154.81;;;4.05;91.34
70833;BME280;58452;59.418;17.962;2023-03-19T01:29:08;101154.28;;;4.14;91.36
70833;BME280;58452;59.418;17.962;2023-03-19T01:31:34;101159.19;;;4.17;90.96
70833;BME280;58452;59.418;17.962;2023-03-19T01:34:00;101154.66;;;4.22;90.67
70833;BME280;58452;59.418;17.962;2023-03-19T01:36:26;101158.63;;;4.26;90.49
70833;BME280;58452;59.418;17.962;2023-03-19T01:38:52;101165.13;;;4.31;89.69
70833;BME280;58452;59.418;17.962;2023-03-19T01:41:18;101165.84;;;4.33;90.29
70833;BME280;58452;59.418;17.962;2023-03-19T01:43:43;101168.13;;;4.38;89.55
70833;BME280;58452;59.418;17.962;2023-03-19T01:48:54;101175.81;;;4.38;89.08
70833;BME280;58452;59.418;17.962;2023-03-19T01:51:27;101178.56;;;4.35;88.35
70833;BME280;58452;59.418;17.962;2023-03-19T01:53:57;101174.34;;;4.20;88.62
70833;BME280;58452;59.418;17.962;2023-03-19T01:56:30;101174.72;;;4.28;88.97
70833;BME280;58452;59.418;17.962;2023-03-19T01:59:02;101176.06;;;4.19;88.55
70833;BME280;58452;59.418;17.962;2023-03-19T02:01:31;101179.91;;;4.26;88.33
70833;BME280;58452;59.418;17.962;2023-03-19T02:03:58;101188.13;;;4.31;88.67
70833;BME280;58452;59.418;17.962;2023-03-19T02:06:24;101177.66;;;4.22;88.11
70833;BME280;58452;59.418;17.962;2023-03-19T02:08:52;101194.06;;;4.18;88.59
70833;BME280;58452;59.418;17.962;2023-03-19T02:11:18;101180.72;;;4.27;88.22
70833;BME280;58452;59.418;17.962;2023-03-19T02:13:43;101194.25;;;4.29;88.71
70833;BME280;58452;59.418;17.962;2023-03-19T02:16:09;101187.38;;;4.29;87.71
70833;BME280;58452;59.418;17.962;2023-03-19T02:18:35;101189.84;;;4.31;88.19
70833;BME280;58452;59.418;17.962;2023-03-19T02:21:13;101193.88;;;4.35;88.07
70833;BME280;58452;59.418;17.962;2023-03-19T02:26:28;101183.59;;;4.36;87.32
70833;BME280;58452;59.418;17.962;2023-03-19T02:28:54;101186.13;;;4.36;87.90
70833;BME280;58452;59.418;17.962;2023-03-19T02:31:20;101195.34;;;4.39;88.04
70833;BME280;58452;59.418;17.962;2023-03-19T02:36:41;101196.50;;;4.33;87.43
70833;BME280;58452;59.418;17.962;2023-03-19T02:39:28;101204.09;;;4.35;86.95
70833;BME280;58452;59.418;17.962;2023-03-19T02:41:55;101200.97;;;4.30;87.36
70833;BME280;58452;59.418;17.962;2023-03-19T02:44:22;101201.72;;;4.32;87.34
70833;BME280;58452;59.418;17.962;2023-03-19T02:46:48;101202.44;;;4.34;87.03
70833;BME280;58452;59.418;17.962;2023-03-19T02:49:13;101210.88;;;4.36;87.58
70833;BME280;58452;59.418;17.962;2023-03-19T02:51:39;101208.19;;;4.37;86.53
70833;BME280;58452;59.418;17.962;2023-03-19T02:54:06;101215.97;;;4.36;86.64
70833;BME280;58452;59.418;17.962;2023-03-19T02:56:32;101217.78;;;4.34;87.60
70833;BME280;58452;59.418;17.962;2023-03-19T02:58:57;101223.97;;;4.30;86.94
70833;BME280;58452;59.418;17.962;2023-03-19T03:01:23;101219.59;;;4.18;87.54
70833;BME280;58452;59.418;17.962;2023-03-19T03:03:49;101232.72;;;4.12;87.47
70833;BME280;58452;59.418;17.962;2023-03-19T03:06:14;101238.16;;;3.91;88.44
70833;BME280;58452;59.418;17.962;2023-03-19T03:08:40;101237.06;;;3.96;88.72
70833;BME280;58452;59.418;17.962;2023-03-19T03:11:05;101237.44;;;4.04;88.48
70833;BME280;58452;59.418;17.962;2023-03-19T03:13:31;101233.97;;;4.05;88.47
70833;BME280;58452;59.418;17.962;2023-03-19T03:15:57;101233.06;;;4.06;88.84
70833;BME280;58452;59.418;17.962;2023-03-19T03:18:23;101237.44;;;4.04;88.79
70833;BME280;58452;59.418;17.962;2023-03-19T03:20:48;101250.72;;;3.94;88.71
70833;BME280;58452;59.418;17.962;2023-03-19T03:23:14;101249.28;;;4.05;88.95
70833;BME280;58452;59.418;17.962;2023-03-19T03:25:39;101240.47;;;4.10;88.85
70833;BME280;58452;59.418;17.962;2023-03-19T03:28:05;101240.13;;;4.16;88.54
70833;BME280;58452;59.418;17.962;2023-03-19T03:30:31;101240.03;;;4.18;88.88
70833;BME280;58452;59.418;17.962;2023-03-19T03:32:56;101238.56;;;4.14;88.02
70833;BME280;58452;59.418;17.962;2023-03-19T03:35:22;101231.44;;;4.19;87.88
70833;BME280;58452;59.418;17.962;2023-03-19T03:37:50;101233.84;;;4.22;88.21
70833;BME280;58452;59.418;17.962;2023-03-19T03:40:16;101226.00;;;4.25;87.64
70833;BME280;58452;59.418;17.962;2023-03-19T03:42:42;101233.56;;;4.26;87.58
70833;BME280;58452;59.418;17.962;2023-03-19T03:45:08;101239.22;;;3.87;87.38
70833;BME280;58452;59.418;17.962;2023-03-19T03:47:35;101241.53;;;3.92;88.40
70833;BME280;58452;59.418;17.962;2023-03-19T03:50:02;101246.75;;;4.05;87.75
70833;BME280;58452;59.418;17.962;2023-03-19T03:52:30;101248.03;;;4.12;87.81
70833;BME280;58452;59.418;17.962;2023-03-19T03:54:59;101250.03;;;4.07;87.42
70833;BME280;58452;59.418;17.962;2023-03-19T03:57:25;101255.47;;;3.71;87.78
70833;BME280;58452;59.418;17.962;2023-03-19T03:59:51;101260.38;;;3.89;87.40
70833;BME280;58452;59.418;17.962;2023-03-19T04:02:17;101258.22;;;3.98;87.14
70833;BME280;58452;59.418;17.962;2023-03-19T04:04:42;101263.91;;;4.03;87.59
70833;BME280;58452;59.418;17.962;2023-03-19T04:07:08;101258.97;;;4.00;86.72
70833;BME280;58452;59.418;17.962;2023-03-19T04:09:33;101263.91;;;4.03;86.49
70833;BME280;58452;59.418;17.962;2023-03-19T04:11:59;101262.25;;;4.02;86.37
70833;BME280;58452;59.418;17.962;2023-03-19T04:14:25;101257.75;;;3.91;86.09
70833;BME280;58452;59.418;17.962;2023-03-19T04:16:51;101259.03;;;3.68;86.57
70833;BME280;58452;59.418;17.962;2023-03-19T04:19:16;101255.75;;;3.66;87.54
70833;BME280;58452;59.418;17.962;2023-03-19T04:21:42;101254.81;;;3.67;87.16
70833;BME280;58452;59.418;17.962;2023-03-19T04:24:09;101260.25;;;3.77;86.91
70833;BME280;58452;59.418;17.962;2023-03-19T04:26:35;101260.72;;;3.83;87.07
70833;BME280;58452;59.418;17.962;2023-03-19T04:29:02;101282.16;;;3.65;87.34
70833;BME280;58452;59.418;17.962;2023-03-19T04:31:28;101268.16;;;3.72;87.02
70833;BME280;58452;59.418;17.962;2023-03-19T04:33:53;101265.09;;;3.81;86.84
70833;BME280;58452;59.418;17.962;2023-03-19T04:36:19;101265.66;;;3.86;86.58
70833;BME280;58452;59.418;17.962;2023-03-19T04:38:45;101287.28;;;3.50;86.89
70833;BME280;58452;59.418;17.962;2023-03-19T04:41:12;101284.63;;;3.20;88.29
70833;BME280;58452;59.418;17.962;2023-03-19T04:43:38;101288.34;;;3.30;89.13
70833;BME280;58452;59.418;17.962;2023-03-19T04:46:04;101292.97;;;3.39;89.40
70833;BME280;58452;59.418;17.962;2023-03-19T04:48:32;101286.97;;;3.56;88.82
70833;BME280;58452;59.418;17.962;2023-03-19T04:51:01;101285.63;;;3.64;88.05
70833;BME280;58452;59.418;17.962;2023-03-19T04:53:27;101294.09;;;3.65;88.62
70833;BME280;58452;59.418;17.962;2023-03-19T04:55:53;101296.66;;;3.65;88.39
70833;BME280;58452;59.418;17.962;2023-03-19T04:58:19;101294.59;;;3.71;88.10
70833;BME280;58452;59.418;17.962;2023-03-19T05:00:44;101298.63;;;3.75;87.67
70833;BME280;58452;59.418;17.962;2023-03-19T05:03:14;101300.28;;;3.76;87.51
70833;BME280;58452;59.418;17.962;2023-03-19T05:05:40;101292.38;;;3.81;87.16
70833;BME280;58452;59.418;17.962;2023-03-19T05:08:05;101286.25;;;3.83;87.17
70833;BME280;58452;59.418;17.962;2023-03-19T05:10:33;101287.91;;;3.84;87.00
70833;BME280;58452;59.418;17.962;2023-03-19T05:12:59;101292.38;;;3.81;86.86
70833;BME280;58452;59.418;17.962;2023-03-19T05:15:24;101286.25;;;3.83;86.43
70833;BME280;58452;59.418;17.962;2023-03-19T05:17:50;101297.72;;;3.76;87.09
70833;BME280;58452;59.418;17.962;2023-03-19T05:20:15;101283.69;;;3.83;86.32
70833;BME280;58452;59.418;17.962;2023-03-19T05:22:41;101273.31;;;3.86;86.48
70833;BME280;58452;59.418;17.962;2023-03-19T05:25:06;101285.06;;;3.89;86.10
70833;BME280;58452;59.418;17.962;2023-03-19T05:27:32;101282.97;;;3.81;86.01
70833;BME280;58452;59.418;17.962;2023-03-19T05:29:57;101291.13;;;3.72;85.66
70833;BME280;58452;59.418;17.962;2023-03-19T05:32:24;101296.41;;;3.69;86.07
70833;BME280;58452;59.418;17.962;2023-03-19T05:34:49;101289.16;;;3.46;86.29
70833;BME280;58452;59.418;17.962;2023-03-19T05:37:15;101307.44;;;3.23;86.93
70833;BME280;58452;59.418;17.962;2023-03-19T05:39:41;101316.19;;;2.69;89.87
70833;BME280;58452;59.418;17.962;2023-03-19T05:42:06;101324.06;;;2.47;91.85
70833;BME280;58452;59.418;17.962;2023-03-19T05:44:32;101332.84;;;2.41;92.96
70833;BME280;58452;59.418;17.962;2023-03-19T05:46:57;101322.28;;;2.66;93.43
70833;BME280;58452;59.418;17.962;2023-03-19T05:49:23;101320.06;;;2.93;93.04
70833;BME280;58452;59.418;17.962;2023-03-19T05:51:48;101320.00;;;3.10;91.63
70833;BME280;58452;59.418;17.962;2023-03-19T05:54:14;101325.50;;;3.03;91.25
70833;BME280;58452;59.418;17.962;2023-03-19T05:56:39;101333.97;;;2.70;92.26
70833;BME280;58452;59.418;17.962;2023-03-19T05:59:04;101338.75;;;2.76;92.63
70833;BME280;58452;59.418;17.962;2023-03-19T06:01:30;101341.78;;;3.00;92.83
70833;BME280;58452;59.418;17.962;2023-03-19T06:03:56;101342.63;;;3.16;91.88
70833;BME280;58452;59.418;17.962;2023-03-19T06:06:21;101346.28;;;3.28;91.83
70833;BME280;58452;59.418;17.962;2023-03-19T06:08:47;101352.16;;;2.97;91.10
70833;BME280;58452;59.418;17.962;2023-03-19T06:11:12;101355.22;;;2.86;92.31
70833;BME280;58452;59.418;17.962;2023-03-19T06:13:38;101355.53;;;3.13;92.29
70833;BME280;58452;59.418;17.962;2023-03-19T06:16:04;101352.13;;;3.30;91.37
70833;BME280;58452;59.418;17.962;2023-03-19T06:18:29;101351.41;;;3.43;90.96
70833;BME280;58452;59.418;17.962;2023-03-19T06:20:55;101348.34;;;3.37;90.72
70833;BME280;58452;59.418;17.962;2023-03-19T06:23:20;101345.31;;;3.46;90.68
70833;BME280;58452;59.418;17.962;2023-03-19T06:25:46;101351.03;;;3.34;90.12
70833;BME280;58452;59.418;17.962;2023-03-19T06:28:11;101356.31;;;3.31;90.44
70833;BME280;58452;59.418;17.962;2023-03-19T06:30:37;101362.09;;;3.50;90.46
70833;BME280;58452;59.418;17.962;2023-03-19T06:33:02;101367.66;;;3.25;89.75
70833;BME280;58452;59.418;17.962;2023-03-19T06:35:28;101374.81;;;3.19;90.64
70833;BME280;58452;59.418;17.962;2023-03-19T06:37:53;101365.53;;;3.33;91.07
70833;BME280;58452;59.418;17.962;2023-03-19T06:40:18;101370.28;;;3.24;89.65
70833;BME280;58452;59.418;17.962;2023-03-19T06:42:45;101370.94;;;3.12;90.39
70833;BME280;58452;59.418;17.962;2023-03-19T06:45:12;101378.94;;;3.21;90.69
70833;BME280;58452;59.418;17.962;2023-03-19T06:47:43;101376.72;;;2.98;90.97
70833;BME280;58452;59.418;17.962;2023-03-19T06:50:10;101385.75;;;3.21;91.62
70833;BME280;58452;59.418;17.962;2023-03-19T06:52:36;101380.81;;;3.18;90.39
70833;BME280;58452;59.418;17.962;2023-03-19T06:55:02;101385.91;;;3.18;90.56
70833;BME280;58452;59.418;17.962;2023-03-19T06:57:28;101377.81;;;3.10;91.17
70833;BME280;58452;59.418;17.962;2023-03-19T06:59:54;101382.47;;;3.34;91.03
70833;BME280;58452;59.418;17.962;2023-03-19T07:02:19;101393.38;;;3.54;90.43
70833;BME280;58452;59.418;17.962;2023-03-19T07:04:45;101383.59;;;3.62;90.81
70833;BME280;58452;59.418;17.962;2023-03-19T07:07:10;101392.38;;;3.40;89.08
70833;BME280;58452;59.418;17.962;2023-03-19T07:09:36;101396.06;;;3.35;89.90
70833;BME280;58452;59.418;17.962;2023-03-19T07:12:01;101389.44;;;3.48;89.60
70833;BME280;58452;59.418;17.962;2023-03-19T07:14:27;101399.38;;;3.53;89.25
70833;BME280;58452;59.418;17.962;2023-03-19T07:16:52;101388.78;;;3.60;89.20
70833;BME280;58452;59.418;17.962;2023-03-19T07:19:18;101392.59;;;3.84;89.22
70833;BME280;58452;59.418;17.962;2023-03-19T07:21:43;101393.56;;;3.98;88.29
70833;BME280;58452;59.418;17.962;2023-03-19T07:24:08;101400.31;;;3.99;87.56
70833;BME280;58452;59.418;17.962;2023-03-19T07:26:34;101400.31;;;3.99;87.60
70833;BME280;58452;59.418;17.962;2023-03-19T07:28:59;101401.28;;;4.12;87.85
70833;BME280;58452;59.418;17.962;2023-03-19T07:31:25;101402.53;;;3.89;86.23
70833;BME280;58452;59.418;17.962;2023-03-19T07:33:51;101405.44;;;3.99;86.46
70833;BME280;58452;59.418;17.962;2023-03-19T07:36:16;101405.28;;;3.70;87.08
70833;BME280;58452;59.418;17.962;2023-03-19T07:38:42;101404.34;;;3.71;88.02
70833;BME280;58452;59.418;17.962;2023-03-19T07:41:07;101405.59;;;3.96;87.59
70833;BME280;58452;59.418;17.962;2023-03-19T07:43:33;101404.78;;;4.11;87.28
70833;BME280;58452;59.418;17.962;2023-03-19T07:45:58;101412.66;;;4.22;87.20
70833;BME280;58452;59.418;17.962;2023-03-19T07:48:25;101405.13;;;4.34;87.20
70833;BME280;58452;59.418;17.962;2023-03-19T07:50:51;101397.63;;;4.47;86.76
70833;BME280;58452;59.418;17.962;2023-03-19T07:53:17;101398.63;;;4.59;85.90
70833;BME280;58452;59.418;17.962;2023-03-19T07:55:42;101403.16;;;4.69;86.22
70833;BME280;58452;59.418;17.962;2023-03-19T07:58:08;101406.06;;;4.77;86.06
70833;BME280;58452;59.418;17.962;2023-03-19T08:00:33;101409.03;;;4.85;85.38
70833;BME280;58452;59.418;17.962;2023-03-19T08:02:59;101405.19;;;4.92;85.08
70833;BME280;58452;59.418;17.962;2023-03-19T08:05:24;101413.06;;;4.89;83.89
70833;BME280;58452;59.418;17.962;2023-03-19T08:07:49;101421.09;;;4.83;84.25
70833;BME280;58452;59.418;17.962;2023-03-19T08:10:16;101427.69;;;4.87;83.31
70833;BME280;58452;59.418;17.962;2023-03-19T08:12:41;101442.50;;;4.67;83.31
70833;BME280;58452;59.418;17.962;2023-03-19T08:15:09;101428.19;;;4.78;83.58
70833;BME280;58452;59.418;17.962;2023-03-19T08:17:35;101430.13;;;4.89;83.07
70833;BME280;58452;59.418;17.962;2023-03-19T08:20:07;101430.38;;;4.84;83.27
70833;BME280;58452;59.418;17.962;2023-03-19T08:22:36;101432.47;;;4.78;83.21
70833;BME280;58452;59.418;17.962;2023-03-19T08:25:03;101428.75;;;4.83;83.30
70833;BME280;58452;59.418;17.962;2023-03-19T08:27:28;101420.91;;;4.86;83.36
70833;BME280;58452;59.418;17.962;2023-03-19T08:29:56;101414.09;;;5.01;83.84
70833;BME280;58452;59.418;17.962;2023-03-19T08:32:21;101421.13;;;5.12;83.32
70833;BME280;58452;59.418;17.962;2023-03-19T08:34:46;101419.13;;;5.17;83.08
70833;BME280;58452;59.418;17.962;2023-03-19T08:37:12;101416.91;;;5.25;83.18
70833;BME280;58452;59.418;17.962;2023-03-19T08:39:37;101418.03;;;5.35;84.04
70833;BME280;58452;59.418;17.962;2023-03-19T08:42:03;101420.94;;;5.43;83.83
70833;BME280;58452;59.418;17.962;2023-03-19T08:44:28;101416.66;;;5.43;83.29
70833;BME280;58452;59.418;17.962;2023-03-19T08:46:54;101416.13;;;5.24;82.31
70833;BME280;58452;59.418;17.962;2023-03-19T08:49:19;101405.78;;;5.26;82.02
70833;BME280;58452;59.418;17.962;2023-03-19T08:51:45;101408.53;;;5.23;82.62
70833;BME280;58452;59.418;17.962;2023-03-19T08:54:11;101414.72;;;5.33;83.21
70833;BME280;58452;59.418;17.962;2023-03-19T08:56:38;101420.78;;;5.46;82.92
70833;BME280;58452;59.418;17.962;2023-03-19T08:59:03;101421.69;;;5.31;82.26
70833;BME280;58452;59.418;17.962;2023-03-19T09:01:29;101428.63;;;5.29;82.58
70833;BME280;58452;59.418;17.962;2023-03-19T09:03:54;101429.09;;;5.35;83.08
70833;BME280;58452;59.418;17.962;2023-03-19T09:06:20;101427.72;;;5.44;82.84
70833;BME280;58452;59.418;17.962;2023-03-19T09:08:45;101428.63;;;5.29;83.33
70833;BME280;58452;59.418;17.962;2023-03-19T09:11:11;101431.47;;;5.38;83.20
70833;BME280;58452;59.418;17.962;2023-03-19T09:13:39;101428.16;;;5.36;84.19
70833;BME280;58452;59.418;17.962;2023-03-19T09:16:05;101427.63;;;5.46;83.19
70833;BME280;58452;59.418;17.962;2023-03-19T09:18:31;101433.13;;;5.54;83.26
70833;BME280;58452;59.418;17.962;2023-03-19T09:20:57;101431.47;;;5.53;83.54
70833;BME280;58452;59.418;17.962;2023-03-19T09:23:22;101426.41;;;5.65;82.97
70833;BME280;58452;59.418;17.962;2023-03-19T09:25:48;101424.03;;;5.76;83.18
70833;BME280;58452;59.418;17.962;2023-03-19T09:28:15;101431.53;;;5.79;82.38
70833;BME280;58452;59.418;17.962;2023-03-19T09:30:40;101424.38;;;5.84;82.39
70833;BME280;58452;59.418;17.962;2023-03-19T09:33:06;101428.25;;;5.92;81.89
70833;BME280;58452;59.418;17.962;2023-03-19T09:35:32;101431.75;;;5.91;82.48
70833;BME280;58452;59.418;17.962;2023-03-19T09:38:01;101436.19;;;5.87;82.52
70833;BME280;58452;59.418;17.962;2023-03-19T09:40:47;101443.25;;;5.98;83.07
70833;BME280;58452;59.418;17.962;2023-03-19T09:43:20;101447.09;;;6.05;82.64
70833;BME280;58452;59.418;17.962;2023-03-19T09:45:52;101440.84;;;6.09;82.52
70833;BME280;58452;59.418;17.962;2023-03-19T09:48:26;101441.78;;;5.94;81.91
70833;BME280;58452;59.418;17.962;2023-03-19T09:50:56;101444.72;;;6.02;82.01
70833;BME280;58452;59.418;17.962;2023-03-19T09:53:34;101439.28;;;6.06;82.46
70833;BME280;58452;59.418;17.962;2023-03-19T09:56:06;101439.53;;;6.16;82.48
70833;BME280;58452;59.418;17.962;2023-03-19T09:58:36;101440.81;;;6.23;81.96
70833;BME280;58452;59.418;17.962;2023-03-19T10:01:02;101436.38;;;6.25;82.19
70833;BME280;58452;59.418;17.962;2023-03-19T10:06:28;101431.47;;;6.22;82.05
70833;BME280;58452;59.418;17.962;2023-03-19T10:16:58;101445.28;;;6.46;82.97
70833;BME280;58452;59.418;17.962;2023-03-19T10:19:37;101439.97;;;6.49;83.02
70833;BME280;58452;59.418;17.962;2023-03-19T10:22:10;101445.41;;;6.57;82.57
70833;BME280;58452;59.418;17.962;2023-03-19T10:24:43;101442.47;;;6.63;82.64
70833;BME280;58452;59.418;17.962;2023-03-19T10:27:16;101438.78;;;6.67;82.50
70833;BME280;58452;59.418;17.962;2023-03-19T10:29:42;101437.56;;;6.73;82.57
70833;BME280;58452;59.418;17.962;2023-03-19T10:35:01;101429.16;;;6.83;82.52
70833;BME280;58452;59.418;17.962;2023-03-19T10:37:32;101428.38;;;6.96;81.85
70833;BME280;58452;59.418;17.962;2023-03-19T10:39:59;101424.84;;;6.84;80.58
70833;BME280;58452;59.418;17.962;2023-03-19T10:47:53;101427.44;;;6.97;81.21
70833;BME280;58452;59.418;17.962;2023-03-19T10:50:27;101436.78;;;7.10;81.68
70833;BME280;58452;59.418;17.962;2023-03-19T10:55:55;101433.91;;;7.27;81.63
70833;BME280;58452;59.418;17.962;2023-03-19T10:58:25;101438.03;;;7.30;81.13
70833;BME280;58452;59.418;17.962;2023-03-19T11:01:02;101441.13;;;7.22;80.16
70833;BME280;58452;59.418;17.962;2023-03-19T11:03:37;101437.09;;;7.31;79.55
70833;BME280;58452;59.418;17.962;2023-03-19T11:06:34;101444.59;;;7.47;78.62
70833;BME280;58452;59.418;17.962;2023-03-19T11:16:57;101437.91;;;7.44;78.97
70833;BME280;58452;59.418;17.962;2023-03-19T11:19:29;101444.81;;;7.44;79.32
70833;BME280;58452;59.418;17.962;2023-03-19T11:22:00;101446.63;;;7.54;78.30
70833;BME280;58452;59.418;17.962;2023-03-19T11:24:30;101445.19;;;7.50;78.67
70833;BME280;58452;59.418;17.962;2023-03-19T11:26:57;101448.78;;;7.35;78.52
70833;BME280;58452;59.418;17.962;2023-03-19T11:29:26;101444.69;;;7.45;78.12
70833;BME280;58452;59.418;17.962;2023-03-19T11:31:55;101438.94;;;7.54;78.18
70833;BME280;58452;59.418;17.962;2023-03-19T11:37:19;101441.22;;;7.21;78.77
70833;BME280;58452;59.418;17.962;2023-03-19T11:40:01;101435.16;;;7.22;78.89
70833;BME280;58452;59.418;17.962;2023-03-19T11:42:59;101434.31;;;7.09;79.15
70833;BME280;58452;59.418;17.962;2023-03-19T11:45:39;101427.75;;;7.05;79.94
70833;BME280;58452;59.418;17.962;2023-03-19T11:56:02;101411.28;;;7.45;79.94
70833;BME280;58452;59.418;17.962;2023-03-19T11:58:42;101417.66;;;7.52;79.74
70833;BME280;58452;59.418;17.962;2023-03-19T12:01:37;101412.59;;;7.63;79.31
70833;BME280;58452;59.418;17.962;2023-03-19T12:12:30;101408.09;;;8.03;79.34
70833;BME280;58452;59.418;17.962;2023-03-19T12:15:15;101395.66;;;8.21;79.87
70833;BME280;58452;59.418;17.962;2023-03-19T12:20:47;101391.19;;;8.36;78.13
70833;BME280;58452;59.418;17.962;2023-03-19T12:26:03;101389.69;;;8.44;77.20
70833;BME280;58452;59.418;17.962;2023-03-19T12:36:28;101381.59;;;8.14;76.94
70833;BME280;58452;59.418;17.962;2023-03-19T12:39:09;101378.75;;;8.06;76.39
70833;BME280;58452;59.418;17.962;2023-03-19T12:41:40;101385.13;;;8.00;76.86
70833;BME280;58452;59.418;17.962;2023-03-19T12:44:18;101379.97;;;8.13;76.28
70833;BME280;58452;59.418;17.962;2023-03-19T12:49:18;101387.44;;;8.16;76.84
70833;BME280;58452;59.418;17.962;2023-03-19T12:51:49;101387.00;;;8.22;76.24
70833;BME280;58452;59.418;17.962;2023-03-19T12:54:20;101381.16;;;8.20;76.57
70833;BME280;58452;59.418;17.962;2023-03-19T12:56:52;101376.84;;;8.20;76.78
70833;BME280;58452;59.418;17.962;2023-03-19T12:59:35;101387.72;;;8.24;76.85
70833;BME280;58452;59.418;17.962;2023-03-19T13:02:19;101380.88;;;8.12;76.64
70833;BME280;58452;59.418;17.962;2023-03-19T13:05:00;101375.03;;;8.10;76.74
70833;BME280;58452;59.418;17.962;2023-03-19T13:07:54;101368.53;;;8.17;76.67
70833;BME280;58452;59.418;17.962;2023-03-19T13:10:23;101368.94;;;8.11;77.05
70833;BME280;58452;59.418;17.962;2023-03-19T13:12:50;101369.34;;;7.94;77.14
70833;BME280;58452;59.418;17.962;2023-03-19T13:15:44;101361.88;;;7.78;78.44
70833;BME280;58452;59.418;17.962;2023-03-19T13:23:32;101363.91;;;7.85;78.77
70833;BME280;58452;59.418;17.962;2023-03-19T13:26:01;101363.72;;;7.89;78.61
70833;BME280;58452;59.418;17.962;2023-03-19T13:28:31;101364.53;;;7.89;78.94
70833;BME280;58452;59.418;17.962;2023-03-19T13:31:27;101367.44;;;7.84;78.58
70833;BME280;58452;59.418;17.962;2023-03-19T13:34:04;101362.66;;;7.67;78.81
70833;BME280;58452;59.418;17.962;2023-03-19T13:36:35;101361.56;;;7.59;79.66
70833;BME280;58452;59.418;17.962;2023-03-19T13:39:02;101363.72;;;7.52;80.26
70833;BME280;58452;59.418;17.962;2023-03-19T13:46:51;101371.69;;;7.36;81.34
70833;BME280;58452;59.418;17.962;2023-03-19T13:49:33;101374.31;;;7.48;80.76
70833;BME280;58452;59.418;17.962;2023-03-19T13:54:52;101368.19;;;7.25;81.49
70833;BME280;58452;59.418;17.962;2023-03-19T13:57:20;101373.94;;;7.41;81.10
70833;BME280;58452;59.418;17.962;2023-03-19T13:59:56;101366.28;;;7.52;81.15
70833;BME280;58452;59.418;17.962;2023-03-19T14:09:45;101361.63;;;7.08;82.36
70833;BME280;58452;59.418;17.962;2023-03-19T14:12:20;101355.44;;;7.23;82.36
70833;BME280;58452;59.418;17.962;2023-03-19T14:25:27;101330.31;;;7.52;81.43
70833;BME280;58452;59.418;17.962;2023-03-19T14:28:15;101332.56;;;7.57;81.64
70833;BME280;58452;59.418;17.962;2023-03-19T14:30:46;101327.63;;;7.66;81.04
70833;BME280;58452;59.418;17.962;2023-03-19T14:33:23;101327.41;;;7.69;80.84
70833;BME280;58452;59.418;17.962;2023-03-19T14:35:51;101331.06;;;7.78;80.95
70833;BME280;58452;59.418;17.962;2023-03-19T14:38:44;101334.50;;;7.66;80.16
70833;BME280;58452;59.418;17.962;2023-03-19T14:41:16;101325.19;;;7.52;81.14